Terminal Aerodrome Forecast
Issued by NWS Sterling, VA

Current Version | Previous Version | Text Only | Print | Product List | Glossary Off
Versions: 1 2 3 4 5 6 7 8 9 10 11 12 13 14 15 16 17 18 19 20 21 22 23 24 25 26 27 28 29

000
FTUS41 KLWX 252100 AAA
TAFIAD
TAF AMD
KIAD 252100Z 2521/2624 20006KT P6SM OVC080
     FM252300 07003KT P6SM OVC040
     FM260400 10007KT 4SM -RASN SCT007 OVC025
     FM260900 08009KT 1SM -SN BKN007 OVC015
     FM261300 06009KT 1SM RASN OVC007
      TEMPO 2613/2617 1/2SM SN OVC005
     FM261700 04010KT 1SM -SN OVC008=

USA.gov is the U.S. government's official web portal to all federal, state and local government web resources and services.